Flight Track Log - Related Links

Times and Time Zones

All times are in EDT time to prevent confusion due to time zone crossing. See the SWA554 flight status page for this flight to view local times or setup timezone preferences in your user account.

Time Position Orientation Groundspeed Altitude Reporting Facility
EDT Latitude Longitude Course Direction KTS MPH feet Rate Location/Type
Sat 10:20:40 PM 38.6500 -121.5833 108° East 179 206 2,100  Level Northern Cal TRACON
Sat 10:21:40 PM 38.6333 -121.5167 108° East 219 252 4,900 3,116 Climbing Northern Cal TRACON
Sat 10:23:41 PM 38.5481 -121.3447 122° Southeast 284 327 11,500 3,215 Climbing Oakland Center
Sat 10:24:41 PM 38.4997 -121.2467 122° Southeast 323 372 14,600 2,975 Climbing Oakland Center
Sat 10:25:42 PM 38.4519 -121.1436 121° Southeast 359 413 17,500 3,000 Climbing Oakland Center
Sat 10:26:43 PM 38.3972 -121.0286 121° Southeast 376 433 20,700 2,852 Climbing Oakland Center
Sat 10:27:44 PM 38.3408 -120.9092 121° Southeast 393 452 23,300 2,529 Climbing Oakland Center
Sat 10:28:44 PM 38.2794 -120.7831 122° Southeast 416 479 25,800 2,380 Climbing Oakland Center
Sat 10:29:45 PM 38.2100 -120.6611 126° Southeast 435 501 28,100 2,115 Climbing Oakland Center
Sat 10:30:46 PM 38.1131 -120.5656 142° Southeast 443 510 30,100 1,820 Climbing Oakland Center
Sat 10:31:47 PM 38.0114 -120.4672 143° Southeast 456 525 31,800 1,785 Climbing Oakland Center
Sat 10:32:47 PM 37.9044 -120.3731 145° Southeast 466 536 33,700 1,736 Climbing Oakland Center
Sat 10:33:48 PM 37.7500 -120.3269 167° South 474 545 35,300 1,525 Climbing Oakland Center
Sat 10:34:49 PM 37.6186 -120.2889 167° South 482 555 36,800 1,525 Climbing Oakland Center
Sat 10:35:50 PM 37.4869 -120.2519 167° South 482 555 38,400 1,388 Climbing Oakland Center
Sat 10:36:50 PM 37.3567 -120.2167 168° South 479 551 39,600 1,041 Climbing Oakland Center
Sat 10:37:51 PM 37.2225 -120.1828 169° South 481 554 40,500 689 Climbing Oakland Center
Sat 10:38:52 PM 37.0903 -120.1461 168° South 484 557 41,000 246 Climbing Oakland Center
Sat 10:39:53 PM 36.9564 -120.1072 167° South 478 550 41,000 -393 Level Oakland Center
Sat 10:40:54 PM 36.8258 -120.0686 167° South 477 549 40,200 -893 Descending Oakland Center
Sat 10:41:54 PM 36.6961 -120.0325 167° South 466 536 39,200 -595 Descending Oakland Center
Sat 10:42:55 PM 36.5639 -119.9942 167° South 477 549 39,000 -98 Descending Oakland Center
Sat 10:43:56 PM 36.4319 -119.9572 167° South 482 555 39,000  Level Oakland Center
Sat 10:44:57 PM 36.3003 -119.9206 167° South 484 557 39,000  Level Oakland Center
Sat 10:45:57 PM 36.1681 -119.8842 167° South 484 557 39,000  Level Oakland Center
Sat 10:46:58 PM 36.0358 -119.8486 168° South 485 558 39,000  Level Oakland Center
Sat 10:47:59 PM 35.9069 -119.8161 168° South 474 545 39,000  Level Oakland Center
Sat 10:49:00 PM 35.7739 -119.7808 168° South 482 555 39,000  Level Oakland Center
Sat 10:50:01 PM 35.6408 -119.7447 168° South 485 558 39,000  Level Oakland Center
Sat 10:51:01 PM 35.5083 -119.7094 168° South 484 557 39,000  Level Oakland Center
Sat 10:52:02 PM 35.3753 -119.6731 167° South 485 558 39,000  Level Oakland Center
Sat 10:52:18 PM 35.3481 -119.6672 170° South 487 560 39,000 -2,104 Level Los Angeles Center
Sat 10:53:19 PM 35.2011 -119.5944 158° South 478 550 36,300 -2,852 Descending Los Angeles Center
Sat 10:54:20 PM 35.0922 -119.5014 145° Southeast 476 548 33,200 -2,902 Descending Los Angeles Center
Sat 10:55:21 PM 34.9828 -119.4086 145° Southeast 479 551 30,400 -2,557 Descending Los Angeles Center
Sat 10:56:22 PM 34.8761 -119.3181 145° Southeast 470 541 28,000 -2,311 Descending Los Angeles Center
Sat 10:57:23 PM 34.7767 -119.2322 145° Southeast 445 512 25,700 -2,195 Descending Los Angeles Center
Sat 10:58:25 PM 34.6789 -119.1508 146° Southeast 429 494 23,500 -2,195 Descending Los Angeles Center
Sat 10:59:26 PM 34.5767 -119.0672 146° Southeast 417 480 21,200 -2,115 Descending Los Angeles Center
Sat 11:00:27 PM 34.4875 -118.9906 145° Southeast 396 456 19,200 -1,967 Descending Los Angeles Center
Sat 11:01:28 PM 34.4025 -118.9219 146° Southeast 371 427 17,200 -1,967 Descending Los Angeles Center
Sat 11:02:29 PM 34.3158 -118.8678 153° Southeast 353 406 15,200 -2,016 Descending Los Angeles Center
Sat 11:03:30 PM 34.2217 -118.8317 162° South 352 405 13,100 -1,623 Descending Los Angeles Center
Sat 11:04:31 PM 34.1300 -118.7992 164° South 344 396 11,900 -1,171 Descending Los Angeles Center
Sat 11:05:33 PM 34.0433 -118.7511 155° Southeast 321 369 10,700 -1,073 Descending Los Angeles Center
Sat 11:06:34 PM 34.0281 -118.6511 100° East 285 328 9,700 -1,279 Descending Los Angeles Center
Sat 11:07:35 PM 34.0192 -118.5578 97° East 282 325 8,100 -1,328 Descending Los Angeles Center
Sat 11:08:36 PM 34.0108 -118.4667 96° East 275 316 7,000 -934 Descending Los Angeles Center
Sat 11:09:37 PM 34.0161 -118.3842 86° East 250 288 6,200 -984 Descending Los Angeles Center
Sat 11:10:38 PM 34.0250 -118.3039 82° East 241 277 5,000 -1,131 Descending Los Angeles Center
Sat 11:11:39 PM 34.0372 -118.2225 80° East 245 282 3,900 -1,082 Descending Los Angeles Center
Sat 11:12:40 PM 34.0389 -118.1442 89° East 246 283 2,800 -836 Descending Los Angeles Center
Sat 11:13:41 PM 33.9844 -118.1386 175° South 227 261 2,200 -295 Descending Los Angeles Center
Sat 11:14:42 PM 33.9731 -118.1981 257° West 192 221 2,200  Level Los Angeles Center
Sat 11:15:44 PM 33.9681 -118.2583 264° West 184 212 2,200 -293 Level Los Angeles Center
Sat 11:16:45 PM 33.9617 -118.3131 262° West 176 203 1,600 -639 Descending Los Angeles Center
Sat 11:17:46 PM 33.9575 -118.3575 264° West 154 177 900 -689 Descending Los Angeles Center
Sat 11:18:47 PM 33.9522 -118.4014 262° West 142 163 200 -689 Descending Los Angeles Center
Sat 11:20:00 PM 33.9425 -118.4081 243° Southwest  Level Estimated
Sat 11:27:00 PM 33.9425 -118.4081 243° Southwest  Level Estimated

Login

Don't have an account? Register now (free) for customized features, flight alerts, and more!